Flight Track Log - Related Links

Times and Time Zones

All times are in EDT time to prevent confusion due to time zone crossing. See the EJA396 flight status page for this flight to view local times or setup timezone preferences in your user account.

Time Position Orientation Groundspeed Altitude Reporting Facility
EDT Latitude Longitude Course Direction KTS MPH feet Rate Location/Type
Wed 05:37:35 PM 42.4333 -87.8333 144° Southeast 189 217 2,200  Level Chicago TRACON
Wed 05:38:35 PM 42.3833 -87.7833 144° Southeast 248 285 5,400 3,450 Climbing Chicago TRACON
Wed 05:39:35 PM 42.3167 -87.7833 180° South 258 297 9,100 3,362 Climbing Chicago TRACON
Wed 05:40:56 PM 42.2175 -87.7453 164° South 307 353 13,300 2,727 Climbing Chicago Center
Wed 05:41:58 PM 42.1392 -87.6372 134° Southeast 366 421 15,600 2,613 Climbing Chicago Center
Wed 05:43:00 PM 42.1397 -87.5050 90° East 355 409 18,700 3,242 Climbing Chicago Center
Wed 05:44:02 PM 42.1439 -87.3736 88° East 353 406 22,300 3,000 Climbing Chicago Center
Wed 05:45:04 PM 42.1342 -87.2389 96° East 359 413 24,900 2,516 Climbing Chicago Center
Wed 05:46:06 PM 42.1267 -87.0969 94° East 377 434 27,500 2,758 Climbing Chicago Center
Wed 05:47:08 PM 42.1144 -86.9236 95° East 387 445 30,600 1,790 Climbing Chicago Center
Wed 05:48:10 PM 42.1072 -86.7747 94° East 401 461 31,200 871 Climbing Chicago Center
Wed 05:49:12 PM 42.1169 -86.6011 86° East 442 509 32,400 1,113 Climbing Chicago Center
Wed 05:50:14 PM 42.1231 -86.4300 87° East 454 522 33,500 1,065 Climbing Chicago Center
Wed 05:51:16 PM 42.1297 -86.2550 87° East 462 532 34,600 1,056 Climbing Chicago Center
Wed 05:52:19 PM 42.1214 -86.0786 94° East 475 547 35,700 1,056 Climbing Chicago Center
Wed 05:53:21 PM 42.1069 -85.9044 96° East 474 545 36,800 629 Climbing Chicago Center
Wed 05:54:23 PM 42.0919 -85.7286 96° East 476 548 37,000 97 Climbing Chicago Center
Wed 05:55:25 PM 42.0744 -85.5097 96° East 490 564 37,000  Level Chicago Center
Wed 05:56:27 PM 42.0586 -85.3264 97° East 495 570 37,000  Level Chicago Center
Wed 05:57:29 PM 42.0439 -85.1411 96° East 498 573 37,000  Level Chicago Center
Wed 05:58:31 PM 42.0278 -84.9542 97° East 504 580 37,000  Level Chicago Center
Wed 05:59:33 PM 42.0128 -84.7700 96° East 501 577 37,000  Level Chicago Center
Wed 06:00:35 PM 41.9914 -84.5519 97° East 496 571 37,000  Level Chicago Center
Wed 06:01:37 PM 41.9753 -84.3661 97° East 500 575 37,000  Level Chicago Center
Wed 06:02:20 PM 41.9597 -84.2497 100° East 503 579 37,000  Level Cleveland Center
Wed 06:03:20 PM 41.9425 -84.0672 97° East 503 579 37,000  Level Cleveland Center
Wed 06:04:20 PM 41.9233 -83.8653 97° East 498 573 37,000  Level Cleveland Center
Wed 06:05:20 PM 41.9033 -83.6828 98° East 498 573 37,000  Level Cleveland Center
Wed 06:06:20 PM 41.8875 -83.5008 97° East 492 566 37,000  Level Cleveland Center
Wed 06:07:20 PM 41.8689 -83.3186 98° East 492 566 37,000  Level Cleveland Center
Wed 06:08:20 PM 41.8481 -83.1364 99° East 492 566 37,000  Level Cleveland Center
Wed 06:09:20 PM 41.8292 -82.9547 98° East 487 560 37,000  Level Cleveland Center
Wed 06:10:20 PM 41.8119 -82.7728 97° East 487 560 37,000  Level Cleveland Center
Wed 06:11:20 PM 41.7903 -82.5911 99° East 487 560 37,000  Level Cleveland Center
Wed 06:12:20 PM 41.7703 -82.4122 98° East 487 560 37,000  Level Cleveland Center
Wed 06:13:20 PM 41.7522 -82.2308 98° East 487 560 37,000  Level Cleveland Center
Wed 06:14:20 PM 41.7317 -82.0550 99° East 480 552 37,000  Level Cleveland Center
Wed 06:15:20 PM 41.7131 -81.8767 98° East 485 558 37,000  Level Cleveland Center
Wed 06:16:20 PM 41.6919 -81.6981 99° East 485 558 37,000  Level Cleveland Center
Wed 06:17:20 PM 41.6725 -81.5367 99° East 485 558 37,000  Level Cleveland Center
Wed 06:18:20 PM 41.6508 -81.3556 99° East 485 558 37,000  Level Cleveland Center
Wed 06:19:20 PM 41.6292 -81.1803 99° East 485 558 37,000  Level Cleveland Center
Wed 06:20:20 PM 41.6069 -81.0025 99° East 485 558 37,000  Level Cleveland Center
Wed 06:21:20 PM 41.5825 -80.8053 99° East 485 558 37,000  Level Cleveland Center
Wed 06:22:20 PM 41.5597 -80.6247 100° East 485 558 37,000  Level Cleveland Center
Wed 06:23:20 PM 41.5367 -80.4472 100° East 485 558 37,000  Level Cleveland Center
Wed 06:24:20 PM 41.5178 -80.2892 99° East 485 558 37,000  Level Cleveland Center
Wed 06:25:20 PM 41.4961 -80.1092 99° East 485 558 37,000  Level Cleveland Center
Wed 06:26:20 PM 41.4703 -79.9319 101° East 485 558 37,000  Level Cleveland Center
Wed 06:27:20 PM 41.4442 -79.7522 101° East 485 558 37,000  Level Cleveland Center
Wed 06:28:20 PM 41.4197 -79.5725 100° East 490 564 37,000  Level Cleveland Center
Wed 06:29:20 PM 41.3953 -79.3931 100° East 490 564 37,000  Level Cleveland Center
Wed 06:30:20 PM 41.3703 -79.2108 100° East 490 564 37,000  Level Cleveland Center
Wed 06:31:20 PM 41.3450 -79.0369 101° East 490 564 37,000  Level Cleveland Center
Wed 06:32:20 PM 41.3192 -78.8358 100° East 485 558 37,000  Level Cleveland Center
Wed 06:33:20 PM 41.2933 -78.6569 101° East 485 558 37,000 -907 Level Cleveland Center
Wed 06:35:45 PM 41.2286 -78.2311 101° East 482 555 33,900 -1,188 Descending New York Center
Wed 06:36:42 PM 41.2019 -78.0572 101° East 482 555 33,000 -458 Descending New York Center
Wed 06:37:43 PM 41.1817 -77.8756 98° East 487 560 33,000  Level New York Center
Wed 06:38:44 PM 41.1589 -77.6994 100° East 487 560 33,000 -762 Level New York Center
Wed 06:40:00 PM 41.1340 -77.5123 100° East  Level FlightAware Approximate
Wed 06:40:44 PM 41.1153 -77.3644 100° East 487 560 30,700  Level New York Center
Wed 06:41:42 PM 41.0919 -77.1833 100° East 481 554 28,800 -1,916 Descending New York Center
Wed 06:42:43 PM 41.0678 -77.0131 101° East 481 554 26,900 -1,820 Descending New York Center
Wed 06:43:44 PM 41.0453 -76.8431 100° East 476 548 25,100 -942 Descending New York Center
Wed 06:44:44 PM 41.0225 -76.6761 100° East 469 540 25,000 -650 Descending New York Center
Wed 06:45:44 PM 40.9864 -76.5217 107° East 458 527 23,800 -1,850 Descending New York Center
Wed 06:46:44 PM 40.9517 -76.3731 107° East 440 506 21,300 -2,644 Descending New York Center
Wed 06:47:42 PM 40.9133 -76.2161 108° East 412 474 18,600 -2,218 Descending New York Center
Wed 06:48:43 PM 40.8803 -76.0708 107° East 407 468 16,900 -1,537 Descending New York Center
Wed 06:49:43 PM 40.8503 -75.9506 108° East 402 463 15,500 -1,587 Descending New York Center
Wed 06:50:44 PM 40.8183 -75.8192 108° East 388 447 13,700 -1,230 Descending New York Center
Wed 06:51:45 PM 40.7806 -75.6767 109° East 378 435 13,000 -356 Descending New York Center
Wed 06:52:42 PM 40.7400 -75.5475 112° Southeast 372 428 13,000 -151 Level New York Center
Wed 06:53:44 PM 40.7031 -75.4300 112° Southeast 379 436 12,700 -689 Descending New York Center
Wed 06:54:44 PM 40.6642 -75.3044 112° Southeast 379 436 11,600 -1,169 Descending New York Center
Wed 06:55:42 PM 40.6214 -75.1703 113° Southeast 374 430 10,400 -807 Descending New York Center
Wed 06:56:43 PM 40.5819 -75.0475 113° Southeast 363 418 10,000 -195 Descending New York Center
Wed 06:57:45 PM 40.5464 -74.9361 113° Southeast 363 418 10,000  Level New York Center
Wed 06:58:43 PM 40.5128 -74.8219 111° Southeast 346 398 10,000  Level New York Center
Wed 06:59:43 PM 40.4808 -74.7192 112° Southeast 312 359 10,000  Level New York Center
Wed 07:00:44 PM 40.4489 -74.6164 112° Southeast 307 353 10,000  Level New York Center
Wed 07:01:44 PM 40.4403 -74.4961 95° East 294 338 10,000 -300 Level New York Center
Wed 07:02:44 PM 40.4683 -74.3992 69° East 294 338 9,400 -1,017 Descending New York Center
Wed 07:03:42 PM 40.5086 -74.3114 59° Northeast 301 346 8,000 -1,475 Descending New York Center
Wed 07:04:42 PM 40.5617 -74.2075 56° Northeast 294 338 6,500 -1,488 Descending New York Center
Wed 07:05:43 PM 40.5989 -74.1411 54° Northeast 250 288 5,000 -1,455 Descending New York Center
Wed 07:06:54 PM 40.6500 -74.0667 48° Northeast 219 252 3,300 -1,145 Descending New York TRACON
Wed 07:07:54 PM 40.6833 -74.0000 57° Northeast 212 244 2,500 -400 Descending New York TRACON
Wed 07:08:54 PM 40.7167 -73.9333 57° Northeast 208 239 2,500 -500 Level New York TRACON
Wed 07:09:54 PM 40.7333 -73.8833 66° East 154 177 1,500 -900 Descending New York TRACON
Wed 07:10:54 PM 40.7500 -73.8333 66° East 136 157 700 -800 Descending New York TRACON
Wed 07:13:00 PM 40.7667 -73.8667 30° Northeast  Level FlightAware Approximate
Wed 07:20:00 PM 40.7772 -73.8726 30° Northeast  Level Estimated

Login

Don't have an account? Register now (free) for customized features, flight alerts, and more!